Time;durP1;ratioP1;P1;durP2;ratioP2;P2;SDS_P1;SDS_P2;PMS_P1;PMS_P2;Temp;Humidity;BMP_temperature;BMP_pressure;BME280_temperature;BME280_humidity;BME280_pressure;Samples;Min_cycle;Max_cycle;Signal;HPM_P1;HPM_P2
2022/08/26 00:01:23;;;;;;;14.02;6.72;;;18.60;99.90;;;;;;5132849;27;20395;-76
2022/08/26 00:03:48;;;;;;;15.55;6.93;;;18.60;99.90;;;;;;5131279;27;20110;-78
2022/08/26 00:06:14;;;;;;;19.10;6.68;;;18.60;99.90;;;;;;5112223;28;20519;-78
2022/08/26 00:08:41;;;;;;;11.95;6.88;;;18.60;99.90;;;;;;5113539;28;20031;-76
2022/08/26 00:11:07;;;;;;;12.48;6.53;;;18.60;99.90;;;;;;5112177;28;20477;-76
2022/08/26 00:13:33;;;;;;;8.73;6.35;;;18.60;99.90;;;;;;5112155;28;20028;-76
2022/08/26 00:15:59;;;;;;;8.45;6.57;;;18.60;99.90;;;;;;5113269;28;20031;-76
2022/08/26 00:18:25;;;;;;;12.70;6.32;;;18.60;99.90;;;;;;5113392;28;20031;-76
2022/08/26 00:20:51;;;;;;;13.15;6.78;;;18.60;99.90;;;;;;5112101;28;20401;-78
2022/08/26 00:23:17;;;;;;;10.85;6.40;;;18.50;99.90;;;;;;5117197;28;20023;-75
2022/08/26 00:25:43;;;;;;;10.02;6.25;;;18.50;99.90;;;;;;5132492;28;20030;-79
2022/08/26 00:28:09;;;;;;;14.50;6.43;;;18.50;99.90;;;;;;5133873;27;20023;-78
2022/08/26 00:30:34;;;;;;;13.30;6.68;;;18.40;99.90;;;;;;5133764;27;20072;-77
2022/08/26 00:33:01;;;;;;;9.77;6.30;;;18.40;99.90;;;;;;5132611;28;20058;-76
2022/08/26 00:35:28;;;;;;;9.52;5.85;;;18.40;99.90;;;;;;5123032;27;20035;-76
2022/08/26 00:37:54;;;;;;;8.27;5.90;;;18.40;99.90;;;;;;5111905;28;20019;-75
2022/08/26 00:40:28;;;;;;;12.55;5.85;;;18.40;99.90;;;;;;5113297;28;20019;-78
2022/08/26 00:42:54;;;;;;;11.13;6.20;;;18.40;99.90;;;;;;5113266;28;20024;-76
2022/08/26 00:45:20;;;;;;;14.13;6.00;;;18.40;99.90;;;;;;5111913;28;20531;-78
2022/08/26 00:47:51;;;;;;;9.88;6.72;;;18.40;99.90;;;;;;5111633;28;20396;-76
2022/08/26 00:50:21;;;;;;;11.13;6.63;;;18.40;99.90;;;;;;5111772;28;20063;-76
2022/08/26 00:52:48;;;;;;;14.30;6.70;;;18.40;99.90;;;;;;5111745;28;20038;-76
2022/08/26 00:55:34;;;;;;;16.15;6.70;;;18.30;99.90;;;;;;5112165;28;20065;-76
2022/08/26 00:58:01;;;;;;;11.57;6.18;;;18.30;99.90;;;;;;5116864;28;20032;-79
2022/08/26 01:00:29;;;;;;;10.90;5.75;;;18.20;99.90;;;;;;5116740;28;20111;-79
2022/08/26 01:02:55;;;;;;;11.48;6.47;;;18.20;99.90;;;;;;5116720;28;20024;-79
2022/08/26 01:05:22;;;;;;;13.07;7.75;;;18.10;99.90;;;;;;5115526;28;20389;-79
2022/08/26 01:07:48;;;;;;;15.70;7.28;;;18.10;99.90;;;;;;5116640;28;20055;-75
2022/08/26 01:10:24;;;;;;;11.65;7.22;;;18.00;99.90;;;;;;5115819;28;20026;-78
2022/08/26 01:13:03;;;;;;;14.02;6.13;;;18.00;99.90;;;;;;5116690;28;20016;-75
2022/08/26 01:15:33;;;;;;;11.88;6.60;;;17.90;99.90;;;;;;5115355;28;20490;-75
2022/08/26 01:17:59;;;;;;;7.53;6.10;;;17.90;99.90;;;;;;5115266;28;20030;-76
2022/08/26 01:20:37;;;;;;;12.77;7.13;;;17.90;99.90;;;;;;5115075;28;20031;-79
2022/08/26 01:23:06;;;;;;;11.05;6.55;;;17.90;99.90;;;;;;5116363;27;20023;-79
2022/08/26 01:25:35;;;;;;;10.15;6.53;;;17.90;99.90;;;;;;5116717;28;20019;-79
2022/08/26 01:28:06;;;;;;;8.27;6.80;;;17.80;99.90;;;;;;5116653;28;20072;-79
2022/08/26 01:30:34;;;;;;;9.82;5.93;;;17.80;99.90;;;;;;5115000;28;20016;-79
2022/08/26 01:33:03;;;;;;;12.27;6.20;;;17.70;99.90;;;;;;5116314;28;20023;-76
2022/08/26 01:35:29;;;;;;;8.85;6.60;;;17.70;99.90;;;;;;5114892;28;20024;-79
2022/08/26 01:37:56;;;;;;;9.13;6.07;;;17.70;99.90;;;;;;5116195;28;20046;-79
2022/08/26 01:40:32;;;;;;;11.98;6.35;;;17.70;99.90;;;;;;5116177;28;20022;-78
2022/08/26 01:43:01;;;;;;;10.05;5.60;;;17.70;99.90;;;;;;5116175;28;20061;-78
2022/08/26 01:45:30;;;;;;;11.20;5.60;;;17.70;99.90;;;;;;5114793;28;20047;-78
2022/08/26 01:47:58;;;;;;;10.90;5.63;;;17.80;99.90;;;;;;5115990;27;20027;-76
2022/08/26 01:50:30;;;;;;;12.20;5.90;;;17.80;99.90;;;;;;5114472;28;20377;-76
2022/08/26 01:53:02;;;;;;;11.30;5.57;;;17.80;99.90;;;;;;5116174;28;20098;-76
2022/08/26 01:55:29;;;;;;;11.50;6.47;;;17.70;99.90;;;;;;5116125;28;20020;-79
2022/08/26 01:57:56;;;;;;;15.35;5.95;;;17.60;99.90;;;;;;5115710;28;20077;-79
2022/08/26 02:00:24;;;;;;;10.07;6.25;;;17.60;99.90;;;;;;5115759;28;20019;-76
2022/08/26 02:05:39;;;;;;;12.95;5.82;;;17.50;99.90;;;;;;5115951;28;20096;-76
2022/08/26 02:08:05;;;;;;;10.57;6.07;;;17.50;99.90;;;;;;5115011;28;20097;-76
2022/08/26 02:10:31;;;;;;;8.75;4.90;;;17.50;99.90;;;;;;5115947;28;20051;-79
2022/08/26 02:12:57;;;;;;;11.00;5.93;;;17.50;99.90;;;;;;5115483;28;20111;-79
2022/08/26 02:15:23;;;;;;;7.97;5.75;;;17.50;99.90;;;;;;5115501;28;20099;-79
2022/08/26 02:17:50;;;;;;;8.65;5.55;;;17.50;99.90;;;;;;5115226;28;20103;-76
2022/08/26 02:20:18;;;;;;;10.13;6.30;;;17.40;99.90;;;;;;5114092;28;20389;-79
2022/08/26 02:22:45;;;;;;;8.57;5.28;;;17.30;99.90;;;;;;5115598;27;20020;-76
2022/08/26 02:25:23;;;;;;;9.45;5.97;;;17.30;99.90;;;;;;5094829;28;20061;-76
2022/08/26 02:27:49;;;;;;;10.73;6.13;;;17.30;99.90;;;;;;5094829;28;20103;-79
2022/08/26 02:30:16;;;;;;;7.63;5.45;;;17.30;99.90;;;;;;5094829;28;20024;-77
2022/08/26 02:32:42;;;;;;;14.88;5.97;;;17.20;99.90;;;;;;5093448;28;20024;-75
2022/08/26 02:35:11;;;;;;;9.85;5.95;;;17.20;99.90;;;;;;5093426;28;20381;-77
2022/08/26 02:37:37;;;;;;;8.77;5.82;;;17.10;99.90;;;;;;5092945;28;20040;-78
2022/08/26 02:40:05;;;;;;;16.17;7.32;;;17.10;99.90;;;;;;5094642;28;20042;-76
2022/08/26 02:42:31;;;;;;;8.63;5.55;;;17.10;99.90;;;;;;5094365;28;20033;-76
2022/08/26 02:44:56;;;;;;;8.50;5.82;;;17.10;99.90;;;;;;5094580;28;20065;-78
2022/08/26 02:47:24;;;;;;;7.95;5.30;;;17.00;99.90;;;;;;5094289;28;20040;-76
2022/08/26 02:49:49;;;;;;;7.93;5.75;;;17.00;99.90;;;;;;5092992;28;20047;-76
2022/08/26 02:52:15;;;;;;;11.55;6.13;;;16.90;99.90;;;;;;5092944;28;20028;-76
2022/08/26 02:54:41;;;;;;;11.88;6.13;;;16.90;99.90;;;;;;5093105;28;20016;-76
2022/08/26 02:57:08;;;;;;;20.23;6.38;;;16.80;99.90;;;;;;5092924;28;20469;-78
2022/08/26 02:59:34;;;;;;;10.98;5.25;;;16.80;99.90;;;;;;5094255;28;20504;-79
2022/08/26 03:02:01;;;;;;;7.35;5.18;;;16.80;99.90;;;;;;5094193;28;20103;-75
2022/08/26 03:04:26;;;;;;;9.60;5.30;;;16.80;99.90;;;;;;5100511;28;20019;-76
2022/08/26 03:06:52;;;;;;;9.57;4.65;;;16.90;99.90;;;;;;5114551;28;20020;-78
2022/08/26 03:09:18;;;;;;;9.02;5.05;;;17.00;99.90;;;;;;5114373;28;20028;-78
2022/08/26 03:11:45;;;;;;;8.27;4.63;;;17.00;99.90;;;;;;5112984;28;20097;-78
2022/08/26 03:14:12;;;;;;;9.45;5.20;;;17.10;99.90;;;;;;5113030;28;20076;-76
2022/08/26 03:16:38;;;;;;;12.27;5.70;;;17.20;99.90;;;;;;5113085;28;20404;-77
2022/08/26 03:19:07;;;;;;;8.88;4.82;;;17.20;99.90;;;;;;5113179;28;20023;-79
2022/08/26 03:21:33;;;;;;;9.15;5.43;;;17.30;99.90;;;;;;5114155;28;20019;-78
2022/08/26 03:23:59;;;;;;;9.70;5.03;;;17.30;99.90;;;;;;5114117;28;20469;-78
2022/08/26 03:26:25;;;;;;;11.75;5.85;;;17.30;99.90;;;;;;5114096;28;20080;-78
2022/08/26 03:31:35;;;;;;;10.43;4.95;;;17.20;99.90;;;;;;5114267;28;20061;-75
2022/08/26 03:34:02;;;;;;;8.43;5.50;;;17.20;99.90;;;;;;5112805;28;20016;-75
2022/08/26 03:36:27;;;;;;;10.88;5.30;;;17.10;99.90;;;;;;5112628;28;20408;-77
2022/08/26 03:38:53;;;;;;;9.32;5.60;;;17.00;99.90;;;;;;5112754;28;20019;-75
2022/08/26 03:41:20;;;;;;;10.20;4.95;;;17.00;99.90;;;;;;5112677;28;20465;-77
2022/08/26 03:43:47;;;;;;;10.93;5.57;;;17.00;99.90;;;;;;5113680;28;20024;-78
2022/08/26 03:46:13;;;;;;;12.45;5.53;;;16.90;99.90;;;;;;5113808;28;20435;-75
2022/08/26 03:48:39;;;;;;;15.32;5.93;;;16.80;99.90;;;;;;5112380;28;20012;-76
2022/08/26 03:51:12;;;;;;;7.57;4.45;;;16.80;99.90;;;;;;5113510;28;20078;-76
2022/08/26 03:53:37;;;;;;;8.25;4.85;;;16.80;99.90;;;;;;5113574;28;20416;-76
2022/08/26 03:56:03;;;;;;;6.68;5.13;;;16.80;99.90;;;;;;5112379;28;20036;-78
2022/08/26 03:58:30;;;;;;;12.48;4.53;;;16.80;99.90;;;;;;5112275;28;20498;-78
2022/08/26 04:00:56;;;;;;;10.38;5.72;;;16.70;99.90;;;;;;5113636;28;20054;-77
2022/08/26 04:06:07;;;;;;;10.00;5.05;;;16.70;99.90;;;;;;5093352;28;20480;-78
2022/08/26 04:08:33;;;;;;;11.00;5.75;;;16.80;99.90;;;;;;5093091;28;20020;-78
2022/08/26 04:11:00;;;;;;;6.45;4.40;;;16.80;99.90;;;;;;5093153;28;20051;-78
2022/08/26 04:13:26;;;;;;;7.47;5.10;;;16.90;99.90;;;;;;5093080;28;20028;-75
2022/08/26 04:15:52;;;;;;;8.35;4.63;;;16.90;99.90;;;;;;5091693;28;20035;-78
2022/08/26 04:18:18;;;;;;;7.47;4.80;;;17.00;99.90;;;;;;5091631;28;20020;-78
2022/08/26 04:20:44;;;;;;;7.07;4.93;;;17.10;99.90;;;;;;5093086;28;20500;-76
2022/08/26 04:23:10;;;;;;;9.45;5.13;;;17.20;99.90;;;;;;5099887;28;20039;-76
2022/08/26 04:25:36;;;;;;;5.65;3.95;;;17.20;99.90;;;;;;5132550;28;20483;-76
2022/08/26 04:28:01;;;;;;;8.52;4.88;;;17.30;99.90;;;;;;5132620;28;20023;-76
2022/08/26 04:30:27;;;;;;;7.82;5.20;;;17.40;99.90;;;;;;5134405;27;20023;-78
2022/08/26 04:32:53;;;;;;;8.50;4.28;;;17.40;99.90;;;;;;5138024;27;20019;-79
2022/08/26 04:35:18;;;;;;;11.07;4.25;;;17.50;99.90;;;;;;5137923;27;20020;-78
2022/08/26 04:37:44;;;;;;;12.55;5.25;;;17.60;99.90;;;;;;5137851;27;20128;-78
2022/08/26 04:40:10;;;;;;;11.35;4.72;;;17.70;99.90;;;;;;5136553;27;20030;-77
2022/08/26 04:42:36;;;;;;;8.35;4.13;;;17.90;99.90;;;;;;5137756;27;20027;-75
2022/08/26 04:45:03;;;;;;;5.97;4.30;;;18.10;99.90;;;;;;5136484;27;20468;-78
2022/08/26 04:47:29;;;;;;;7.82;4.28;;;18.20;99.90;;;;;;5136422;27;20440;-79
2022/08/26 04:49:56;;;;;;;10.10;5.63;;;18.30;99.90;;;;;;5123747;27;20492;-79
2022/08/26 04:52:23;;;;;;;9.30;5.28;;;18.50;99.90;;;;;;5109236;28;20035;-76
2022/08/26 04:54:49;;;;;;;9.43;4.30;;;18.60;99.10;;;;;;5099408;28;20049;-76
2022/08/26 04:57:15;;;;;;;10.52;4.65;;;18.70;99.00;;;;;;5102254;28;20063;-76
2022/08/26 04:59:40;;;;;;;10.20;5.00;;;18.70;98.70;;;;;;5109267;27;20028;-77
2022/08/26 05:02:06;;;;;;;7.10;4.05;;;18.80;98.60;;;;;;5099800;28;20024;-76
2022/08/26 05:04:32;;;;;;;11.75;4.85;;;18.80;96.40;;;;;;5110806;28;20020;-78
2022/08/26 05:06:57;;;;;;;8.75;4.63;;;18.90;97.40;;;;;;5115650;28;20373;-79
2022/08/26 05:09:24;;;;;;;9.98;4.70;;;18.90;97.80;;;;;;5116614;28;20058;-77
2022/08/26 05:11:50;;;;;;;12.57;5.03;;;19.00;96.70;;;;;;5116727;28;20023;-76
2022/08/26 05:14:16;;;;;;;9.15;4.05;;;19.10;96.90;;;;;;5115201;28;20024;-78
2022/08/26 05:16:42;;;;;;;12.98;4.80;;;19.20;96.60;;;;;;5116204;28;20072;-78
2022/08/26 05:19:08;;;;;;;10.00;5.13;;;19.20;96.70;;;;;;5115802;28;20028;-76
2022/08/26 05:21:35;;;;;;;9.27;4.68;;;19.30;95.70;;;;;;5115358;28;20027;-76
2022/08/26 05:24:01;;;;;;;9.32;4.47;;;19.40;94.90;;;;;;5126921;27;20030;-79
2022/08/26 05:26:28;;;;;;;8.85;4.38;;;19.50;94.90;;;;;;5137058;27;20027;-80
2022/08/26 05:28:56;;;;;;;10.02;4.47;;;19.60;94.30;;;;;;5136079;27;20051;-81
2022/08/26 05:31:27;;;;;;;7.63;4.43;;;19.80;93.30;;;;;;5118943;27;20107;-80
2022/08/26 05:33:55;;;;;;;13.48;5.22;;;19.90;92.20;;;;;;5129290;27;20023;-81
2022/08/26 05:36:22;;;;;;;14.80;4.43;;;20.00;90.20;;;;;;5133992;27;20035;-80
2022/08/26 05:38:48;;;;;;;8.75;4.95;;;20.10;89.20;;;;;;5128754;27;20384;-79
2022/08/26 05:41:23;;;;;;;13.95;4.82;;;20.20;89.90;;;;;;5132112;27;20027;-80
2022/08/26 05:43:49;;;;;;;7.03;4.78;;;20.20;87.90;;;;;;5133502;27;20051;-78
2022/08/26 05:46:15;;;;;;;11.57;4.82;;;20.30;90.40;;;;;;5133276;27;20053;-79
2022/08/26 05:48:41;;;;;;;10.88;5.00;;;20.40;89.10;;;;;;5130402;27;20473;-80
2022/08/26 05:51:09;;;;;;;10.05;5.35;;;20.50;89.10;;;;;;5134948;27;20038;-80
2022/08/26 05:53:37;;;;;;;10.63;5.18;;;20.50;87.80;;;;;;5134203;27;20019;-80
2022/08/26 05:56:04;;;;;;;11.48;5.60;;;20.70;85.90;;;;;;5115196;27;20032;-80
2022/08/26 05:58:30;;;;;;;15.35;5.28;;;20.80;86.40;;;;;;5122086;27;20103;-79
2022/08/26 06:01:02;;;;;;;7.53;4.90;;;20.90;86.00;;;;;;5134947;27;20073;-79
2022/08/26 06:03:30;;;;;;;10.10;5.10;;;21.00;86.70;;;;;;5134876;27;20030;-79
2022/08/26 06:05:56;;;;;;;9.23;6.00;;;21.00;84.00;;;;;;5113740;27;20165;-80
2022/08/26 06:08:22;;;;;;;15.25;5.30;;;21.20;83.60;;;;;;5136159;27;20023;-80
2022/08/26 06:10:51;;;;;;;9.35;4.72;;;21.20;82.70;;;;;;5135886;27;20188;-79
2022/08/26 06:13:18;;;;;;;13.05;5.10;;;21.30;83.00;;;;;;5135589;27;20023;-80
2022/08/26 06:15:46;;;;;;;9.65;5.75;;;21.40;83.60;;;;;;5134106;27;20025;-79
2022/08/26 06:18:14;;;;;;;12.30;4.78;;;21.60;82.80;;;;;;5134993;27;20075;-80
2022/08/26 06:20:46;;;;;;;16.40;6.10;;;21.60;80.50;;;;;;5135495;27;20025;-80
2022/08/26 06:25:59;;;;;;;7.53;4.95;;;21.90;79.90;;;;;;5135765;27;20103;-80
2022/08/26 06:28:26;;;;;;;13.25;5.15;;;21.90;78.50;;;;;;5135361;27;20098;-80
2022/08/26 06:30:52;;;;;;;10.45;5.20;;;22.00;79.40;;;;;;5123424;27;20027;-80
2022/08/26 06:33:18;;;;;;;16.65;5.65;;;22.10;80.40;;;;;;5119394;27;20023;-79
2022/08/26 06:35:45;;;;;;;14.27;5.07;;;22.10;78.80;;;;;;5134254;27;20019;-80
2022/08/26 06:38:12;;;;;;;12.38;5.90;;;22.20;78.00;;;;;;5119953;27;20031;-79
2022/08/26 06:40:47;;;;;;;15.32;5.72;;;22.30;76.40;;;;;;5114115;27;20020;-79
2022/08/26 06:43:16;;;;;;;11.73;5.32;;;22.40;78.40;;;;;;5117709;27;20453;-78
2022/08/26 06:45:44;;;;;;;11.55;5.28;;;22.50;75.60;;;;;;5126750;27;20015;-80
2022/08/26 06:48:09;;;;;;;10.18;5.22;;;22.60;75.00;;;;;;5134273;27;20102;-79
2022/08/26 06:50:35;;;;;;;11.98;4.63;;;22.50;72.90;;;;;;5134977;27;20512;-78
2022/08/26 06:53:01;;;;;;;10.50;5.22;;;22.60;72.90;;;;;;5134553;27;20098;-80
2022/08/26 06:55:26;;;;;;;14.32;5.57;;;22.60;72.40;;;;;;5134467;27;20499;-79
2022/08/26 06:57:53;;;;;;;9.35;5.18;;;22.80;73.50;;;;;;5134452;27;20053;-78
2022/08/26 07:00:19;;;;;;;9.23;5.28;;;22.80;72.00;;;;;;5134691;27;20076;-79
2022/08/26 07:02:45;;;;;;;11.98;5.28;;;22.90;70.00;;;;;;5133957;27;20038;-79
2022/08/26 07:05:11;;;;;;;12.73;5.78;;;23.10;70.50;;;;;;5127211;27;20015;-79
2022/08/26 07:07:37;;;;;;;10.00;5.10;;;23.20;69.40;;;;;;5132464;27;20031;-79
2022/08/26 07:10:04;;;;;;;11.25;5.63;;;23.40;69.00;;;;;;5134402;27;20524;-81
2022/08/26 07:12:30;;;;;;;13.70;5.95;;;23.30;67.60;;;;;;5094560;27;20433;-81
2022/08/26 07:14:56;;;;;;;10.55;4.80;;;23.30;66.70;;;;;;5113018;28;20107;-81
2022/08/26 07:17:22;;;;;;;12.77;4.80;;;23.30;66.90;;;;;;5109324;28;20261;-80
2022/08/26 07:19:47;;;;;;;16.25;5.40;;;23.40;67.10;;;;;;5093397;28;20032;-81
2022/08/26 07:22:13;;;;;;;12.02;4.85;;;23.60;68.30;;;;;;5093252;28;20068;-81
2022/08/26 07:24:40;;;;;;;17.17;5.18;;;23.70;66.80;;;;;;5129031;27;20055;-81
2022/08/26 07:27:12;;;;;;;15.65;4.95;;;23.90;66.90;;;;;;5112353;27;20435;-80
2022/08/26 07:29:39;;;;;;;15.75;5.85;;;24.00;65.00;;;;;;5096955;28;20381;-81
2022/08/26 07:32:05;;;;;;;9.05;4.80;;;24.20;64.50;;;;;;5101400;28;20388;-82
2022/08/26 07:34:32;;;;;;;9.93;4.90;;;24.20;63.10;;;;;;5102857;28;20072;-82
2022/08/26 07:36:58;;;;;;;14.70;5.32;;;24.20;62.70;;;;;;5104730;28;20032;-83
2022/08/26 07:39:25;;;;;;;12.50;4.72;;;24.30;63.50;;;;;;5101467;28;20019;-82
2022/08/26 07:41:52;;;;;;;9.27;4.68;;;24.50;63.80;;;;;;5098821;28;20027;-82
2022/08/26 07:44:18;;;;;;;9.90;4.45;;;24.60;62.00;;;;;;5100788;28;20012;-81
2022/08/26 07:46:44;;;;;;;12.68;4.70;;;24.60;60.40;;;;;;5100132;28;20381;-80
2022/08/26 07:49:10;;;;;;;12.88;4.53;;;24.60;60.30;;;;;;5101904;28;20049;-81
2022/08/26 07:51:37;;;;;;;11.40;4.45;;;24.70;61.90;;;;;;5101167;28;20024;-80
2022/08/26 07:54:04;;;;;;;10.48;4.13;;;24.80;61.20;;;;;;5101228;28;20019;-80
2022/08/26 07:56:30;;;;;;;11.35;4.63;;;24.90;61.50;;;;;;5112078;28;20036;-81
2022/08/26 07:58:55;;;;;;;7.88;4.00;;;24.80;59.90;;;;;;5113575;28;20599;-81
2022/08/26 08:01:23;;;;;;;7.18;3.72;;;24.80;59.50;;;;;;5113246;28;20020;-80
2022/08/26 08:03:50;;;;;;;7.57;4.10;;;24.90;58.30;;;;;;5113384;28;20035;-81
2022/08/26 08:06:20;;;;;;;9.88;4.53;;;25.00;58.50;;;;;;5112456;28;20050;-81
2022/08/26 08:08:46;;;;;;;10.45;3.95;;;25.20;57.10;;;;;;5106491;28;20027;-81
2022/08/26 08:11:13;;;;;;;15.35;4.05;;;25.30;57.10;;;;;;5094190;28;20075;-80
2022/08/26 08:13:38;;;;;;;9.85;4.22;;;25.50;58.20;;;;;;5092556;28;20060;-82
2022/08/26 08:16:06;;;;;;;9.40;3.90;;;25.70;57.90;;;;;;5092396;28;20064;-81
2022/08/26 08:18:32;;;;;;;9.45;4.10;;;25.90;57.90;;;;;;5092561;28;20020;-83
2022/08/26 08:21:02;;;;;;;8.15;3.53;;;26.00;56.80;;;;;;5092495;28;20470;-82
2022/08/26 08:23:30;;;;;;;12.55;3.67;;;26.10;55.40;;;;;;5107559;28;20027;-82
2022/08/26 08:26:08;;;;;;;9.65;3.97;;;26.20;55.40;;;;;;5133051;27;20499;-82
2022/08/26 08:28:34;;;;;;;5.97;3.80;;;26.30;54.70;;;;;;5132066;27;20477;-82
2022/08/26 08:31:00;;;;;;;10.75;4.22;;;26.40;54.90;;;;;;5133258;27;20027;-82
2022/08/26 08:33:29;;;;;;;11.07;3.65;;;26.40;55.10;;;;;;5132048;28;20034;-82
2022/08/26 08:35:55;;;;;;;10.73;3.20;;;26.30;54.90;;;;;;5133173;27;20047;-82
2022/08/26 08:38:21;;;;;;;13.23;5.28;;;26.40;55.80;;;;;;5133620;27;20031;-82
2022/08/26 08:40:46;;;;;;;5.60;3.13;;;26.50;54.70;;;;;;5133321;27;20373;-82
2022/08/26 08:43:16;;;;;;;8.60;3.35;;;26.60;54.30;;;;;;5131283;27;20103;-82
2022/08/26 08:45:50;;;;;;;9.98;3.75;;;26.80;54.40;;;;;;5101377;27;20953;-82
2022/08/26 08:48:24;;;;;;;9.27;4.03;;;26.80;54.20;;;;;;5104184;28;20489;-82
2022/08/26 08:50:54;;;;;;;11.00;3.40;;;26.80;53.40;;;;;;5124978;27;20047;-83
2022/08/26 08:53:34;;;;;;;13.88;4.15;;;26.80;52.80;;;;;;5129427;27;20365;-82
2022/08/26 08:56:10;;;;;;;14.18;3.42;;;26.80;53.50;;;;;;5127914;27;20054;-82
2022/08/26 08:58:57;;;;;;;7.07;3.47;;;27.00;53.90;;;;;;5131270;28;20031;-82
2022/08/26 09:01:26;;;;;;;7.68;3.47;;;27.10;54.60;;;;;;5116766;27;20400;-82
2022/08/26 09:04:01;;;;;;;6.38;3.50;;;27.20;53.60;;;;;;5126352;27;20102;-82
2022/08/26 09:06:27;;;;;;;9.57;3.47;;;27.30;53.20;;;;;;5132113;27;20062;-82
2022/08/26 09:08:55;;;;;;;10.27;3.78;;;27.50;54.50;;;;;;5127611;27;20024;-82
2022/08/26 09:11:21;;;;;;;10.52;3.95;;;27.40;53.10;;;;;;5131432;27;20039;-82
2022/08/26 09:13:51;;;;;;;12.80;4.03;;;27.60;53.60;;;;;;5117576;27;20028;-82
2022/08/26 09:16:45;;;;;;;17.80;3.58;;;27.60;53.40;;;;;;5120975;27;20046;-83
2022/08/26 09:19:24;;;;;;;6.60;3.55;;;27.70;51.80;;;;;;5122344;27;20029;-83
2022/08/26 09:21:59;;;;;;;4.82;3.17;;;27.70;51.20;;;;;;5119313;27;20027;-83
2022/08/26 09:24:25;;;;;;;6.43;3.60;;;27.80;50.90;;;;;;5119921;27;20071;-83
2022/08/26 09:26:51;;;;;;;7.68;3.83;;;27.80;50.10;;;;;;5107793;27;20028;-81
2022/08/26 09:29:26;;;;;;;10.50;3.45;;;27.90;51.50;;;;;;5136023;27;20590;-83
2022/08/26 09:32:14;;;;;;;12.05;3.20;;;28.00;50.90;;;;;;5129754;27;20110;-82
2022/08/26 09:34:54;;;;;;;12.77;4.25;;;28.10;50.50;;;;;;5123528;27;20018;-83
2022/08/26 09:37:55;;;;;;;8.75;3.47;;;28.10;51.00;;;;;;5127477;27;20549;-83
2022/08/26 09:40:34;;;;;;;11.15;3.60;;;28.20;51.30;;;;;;5079306;28;20048;-81
2022/08/26 09:43:16;;;;;;;8.07;3.47;;;28.20;49.10;;;;;;5124397;27;20035;-81
2022/08/26 09:45:53;;;;;;;5.90;2.70;;;28.20;48.40;;;;;;5121175;27;20029;-81
2022/08/26 09:48:27;;;;;;;9.00;3.25;;;28.20;48.10;;;;;;5133180;27;20031;-82
2022/08/26 09:50:56;;;;;;;11.82;3.97;;;28.30;48.90;;;;;;5134667;27;20074;-82
2022/08/26 09:53:31;;;;;;;12.35;3.38;;;28.40;48.90;;;;;;5129914;27;20606;-81
2022/08/26 09:56:17;;;;;;;12.75;3.05;;;28.50;48.10;;;;;;5114564;27;20480;-83
2022/08/26 09:58:46;;;;;;;15.27;4.13;;;28.40;46.30;;;;;;5130635;27;20050;-82
2022/08/26 10:01:42;;;;;;;8.05;3.55;;;28.50;46.20;;;;;;5127755;27;20031;-81
2022/08/26 10:04:10;;;;;;;10.98;3.67;;;28.60;47.10;;;;;;5119842;27;20505;-81
2022/08/26 10:06:43;;;;;;;9.77;3.65;;;28.70;46.70;;;;;;5111677;27;20035;-81
2022/08/26 10:09:11;;;;;;;;;;;28.70;47.10;;;;;;5107893;27;20044;-82
2022/08/26 10:11:47;;;;;;;9.38;3.17;;;28.90;47.00;;;;;;5134391;27;19903;-82
2022/08/26 10:14:26;;;;;;;9.10;2.58;;;28.90;46.00;;;;;;5134826;27;20496;-81
2022/08/26 10:16:56;;;;;;;8.43;3.33;;;28.90;44.40;;;;;;5132397;27;20075;-82
2022/08/26 10:19:27;;;;;;;10.05;3.80;;;29.00;45.60;;;;;;5134691;27;20021;-82
2022/08/26 10:22:21;;;;;;;7.80;3.40;;;29.10;47.30;;;;;;5133589;27;20567;-82
2022/08/26 10:24:51;;;;;;;24.35;3.20;;;28.90;44.20;;;;;;5123234;27;20143;-81
2022/08/26 10:27:51;;;;;;;16.67;3.55;;;28.90;44.60;;;;;;5120277;27;20442;-82
2022/08/26 10:30:28;;;;;;;8.57;2.80;;;28.90;44.40;;;;;;5134098;27;20034;-81
2022/08/26 10:33:17;;;;;;;8.60;2.88;;;28.80;43.50;;;;;;5133672;27;20023;-81
2022/08/26 10:36:04;;;;;;;7.05;2.53;;;28.80;43.50;;;;;;5134052;27;20099;-82
2022/08/26 10:38:39;;;;;;;6.68;2.70;;;28.90;43.10;;;;;;5111911;27;20043;-82
2022/08/26 10:41:19;;;;;;;10.88;3.40;;;29.00;44.10;;;;;;5104749;27;20081;-82
2022/08/26 10:43:53;;;;;;;9.15;3.10;;;29.00;44.50;;;;;;5103331;27;20043;-81
2022/08/26 10:46:23;;;;;;;13.30;3.42;;;29.10;44.30;;;;;;5114595;27;20106;-81
2022/08/26 10:49:03;;;;;;;9.80;3.03;;;29.20;44.60;;;;;;5104683;27;20035;-81
2022/08/26 10:51:35;;;;;;;8.27;3.42;;;29.10;44.00;;;;;;5127499;27;20018;-82
2022/08/26 10:54:14;;;;;;;11.48;2.90;;;29.10;43.50;;;;;;5122867;27;20380;-81
2022/08/26 10:57:16;;;;;;;9.13;2.78;;;29.20;43.70;;;;;;5106788;27;20027;-82
2022/08/26 11:01:40;;;;;;;7.85;2.30;;;29.10;41.90;;;;;;5099598;27;20050;-81
2022/08/26 11:03:07;;;;;;;8.02;2.67;;;29.00;40.80;;;;;;5103029;27;21309;-82
2022/08/26 11:05:33;;;;;;;7.40;2.38;;;29.10;42.10;;;;;;5102931;27;20031;-81
2022/08/26 11:08:43;;;;;;;8.77;2.60;;;29.00;42.20;;;;;;5100893;27;20028;-82
2022/08/26 11:11:09;;;;;;;10.75;2.83;;;29.20;41.30;;;;;;5057528;28;20532;-81
2022/08/26 11:14:01;;;;;;;8.45;2.40;;;29.20;41.90;;;;;;5098313;27;20160;-81
2022/08/26 11:16:48;;;;;;;11.63;3.00;;;29.20;40.90;;;;;;5101004;27;20043;-82
2022/08/26 11:19:29;;;;;;;10.30;2.88;;;29.30;41.90;;;;;;5105671;27;20044;-80
2022/08/26 11:22:04;;;;;;;7.93;3.20;;;29.30;40.70;;;;;;5105116;27;20031;-81
2022/08/26 11:24:42;;;;;;;9.63;2.55;;;29.30;40.90;;;;;;5107637;27;20389;-83
2022/08/26 11:27:40;;;;;;;11.65;3.15;;;29.20;40.30;;;;;;5108898;27;20023;-83
2022/08/26 11:30:06;;;;;;;6.95;2.88;;;29.40;41.60;;;;;;5111529;27;20084;-82
2022/08/26 11:32:38;;;;;;;8.75;2.15;;;29.30;40.10;;;;;;5132098;27;20106;-83
2022/08/26 11:35:22;;;;;;;9.43;3.30;;;29.30;39.50;;;;;;5131229;27;20094;-83
2022/08/26 11:38:00;;;;;;;11.85;3.53;;;29.40;40.80;;;;;;5124165;27;20063;-82
2022/08/26 11:40:32;;;;;;;6.50;2.90;;;29.40;40.50;;;;;;5103910;27;20472;-82
2022/08/26 11:43:17;;;;;;;6.53;2.50;;;29.50;40.80;;;;;;5131354;27;20079;-82
2022/08/26 11:45:46;;;;;;;7.45;3.15;;;29.40;40.10;;;;;;5121608;27;20015;-81
2022/08/26 11:48:31;;;;;;;5.45;2.72;;;29.40;40.40;;;;;;5127523;27;20024;-82
2022/08/26 11:51:06;;;;;;;6.68;2.78;;;29.50;40.60;;;;;;5124354;27;20069;-82
2022/08/26 11:53:35;;;;;;;4.50;2.40;;;29.50;40.50;;;;;;5100366;27;20063;-82
2022/08/26 11:56:32;;;;;;;9.65;3.38;;;29.50;39.50;;;;;;5125806;27;20464;-81
2022/08/26 11:59:03;;;;;;;7.35;2.90;;;29.60;39.50;;;;;;5131029;27;20033;-82
2022/08/26 12:01:35;;;;;;;4.57;2.33;;;29.60;39.60;;;;;;5130855;27;20027;-82
2022/08/26 12:04:04;;;;;;;4.65;2.58;;;29.60;38.20;;;;;;5118235;27;20043;-81
2022/08/26 12:06:29;;;;;;;9.27;2.65;;;29.60;38.40;;;;;;5132573;27;20515;-82
2022/08/26 12:09:00;;;;;;;3.90;2.58;;;29.60;38.70;;;;;;5112926;27;20116;-81
2022/08/26 12:11:28;;;;;;;5.88;3.00;;;29.60;39.50;;;;;;5106991;27;20098;-81
2022/08/26 12:13:58;;;;;;;7.40;2.70;;;29.60;38.80;;;;;;5104075;27;20493;-82
2022/08/26 12:16:26;;;;;;;6.07;2.40;;;29.50;38.20;;;;;;5101348;28;20064;-81
2022/08/26 12:18:52;;;;;;;4.28;2.55;;;29.50;38.30;;;;;;5124094;27;20514;-82
2022/08/26 12:21:22;;;;;;;6.28;2.85;;;29.50;38.70;;;;;;5115818;28;20069;-82
2022/08/26 12:23:51;;;;;;;6.60;2.92;;;29.50;39.00;;;;;;5110629;27;20436;-82
2022/08/26 12:26:27;;;;;;;6.55;2.55;;;29.40;39.00;;;;;;5124167;27;20110;-82
2022/08/26 12:29:01;;;;;;;6.25;2.55;;;29.50;38.90;;;;;;5106579;27;20042;-82
2022/08/26 12:31:39;;;;;;;5.85;2.90;;;29.60;39.60;;;;;;5103372;28;20055;-81
2022/08/26 12:34:09;;;;;;;7.85;2.92;;;29.70;39.00;;;;;;5104178;27;20035;-81
2022/08/26 12:36:54;;;;;;;4.95;2.60;;;29.80;39.00;;;;;;5108915;28;20071;-81
2022/08/26 12:39:32;;;;;;;10.43;3.42;;;29.80;39.00;;;;;;5113439;27;20556;-81
2022/08/26 12:42:19;;;;;;;5.13;2.95;;;29.80;39.90;;;;;;5106772;28;20111;-81
2022/08/26 12:44:57;;;;;;;3.88;2.58;;;29.90;39.40;;;;;;5111395;27;20116;-81
2022/08/26 12:47:42;;;;;;;6.93;3.10;;;29.80;38.70;;;;;;5109195;28;20070;-80
2022/08/26 12:50:08;;;;;;;8.50;2.53;;;29.70;38.10;;;;;;5100941;27;20113;-81
2022/08/26 12:52:58;;;;;;;5.90;2.40;;;29.70;37.40;;;;;;5103412;27;20040;-81
2022/08/26 12:55:40;;;;;;;6.53;3.13;;;29.60;38.50;;;;;;5106185;28;20056;-81
2022/08/26 12:58:15;;;;;;;6.60;2.70;;;29.60;39.30;;;;;;5106583;28;20157;-81
2022/08/26 13:00:50;;;;;;;5.25;3.28;;;29.70;38.60;;;;;;5104939;28;20023;-82
2022/08/26 13:03:30;;;;;;;4.57;2.80;;;29.70;38.00;;;;;;5105584;28;20131;-81
2022/08/26 13:06:16;;;;;;;5.45;2.90;;;29.70;38.70;;;;;;5105532;28;20028;-81
2022/08/26 13:09:07;;;;;;;4.30;2.70;;;29.80;38.90;;;;;;5106458;28;20069;-81
2022/08/26 13:11:39;;;;;;;7.53;3.42;;;29.70;37.70;;;;;;5098425;28;20024;-81